Time;durP1;ratioP1;P1;durP2;ratioP2;P2;SDS_P1;SDS_P2;PMS_P1;PMS_P2;Temp;Humidity;BMP_temperature;BMP_pressure;BME280_temperature;BME280_humidity;BME280_pressure;Samples;Min_cycle;Max_cycle;Signal;HPM_P1;HPM_P2
2024/01/11 00:01:51;;;;;;;21.40;14.00;;;;;;;13.34;45.04;103446.16;4942357;28;20051;-35
2024/01/11 00:04:17;;;;;;;23.35;13.23;;;;;;;13.36;44.73;103448.78;4944400;28;20055;-34
2024/01/11 00:06:44;;;;;;;24.13;14.80;;;;;;;13.39;44.69;103444.22;4947373;29;20047;-35
2024/01/11 00:09:11;;;;;;;20.42;13.90;;;;;;;13.44;44.95;103433.38;4945667;28;20113;-34
2024/01/11 00:11:38;;;;;;;21.42;13.80;;;;;;;13.52;44.68;103444.59;4945206;28;20047;-36
2024/01/11 00:14:05;;;;;;;19.27;12.32;;;;;;;13.60;44.52;103442.50;4941295;29;20059;-35
2024/01/11 00:16:31;;;;;;;18.63;12.20;;;;;;;13.71;44.48;103444.72;4947362;28;20054;-34
2024/01/11 00:18:58;;;;;;;18.50;11.95;;;;;;;13.82;44.35;103454.00;4947858;29;20076;-34
2024/01/11 00:21:25;;;;;;;21.42;12.27;;;;;;;13.93;44.14;103450.91;4945294;29;20055;-35
2024/01/11 00:23:52;;;;;;;18.08;12.35;;;;;;;14.04;44.14;103439.81;4946187;29;20089;-35
2024/01/11 00:26:18;;;;;;;16.75;11.52;;;;;;;14.12;43.17;103442.16;4945510;29;20527;-34
2024/01/11 00:28:45;;;;;;;18.58;12.07;;;;;;;14.21;43.61;103439.09;4946424;29;20056;-35
2024/01/11 00:31:12;;;;;;;19.88;12.65;;;;;;;14.27;43.56;103433.50;4943615;28;20529;-35
2024/01/11 00:33:39;;;;;;;17.45;11.48;;;;;;;14.31;43.04;103435.09;4941651;29;20126;-35
2024/01/11 00:36:05;;;;;;;17.70;11.18;;;;;;;14.32;43.66;103436.84;4946692;28;20106;-35
2024/01/11 00:38:32;;;;;;;19.65;11.88;;;;;;;14.31;43.71;103429.75;4947226;28;20137;-35
2024/01/11 00:40:59;;;;;;;17.25;10.63;;;;;;;14.30;43.14;103439.56;4946411;28;20055;-34
2024/01/11 00:43:25;;;;;;;17.67;12.02;;;;;;;14.32;43.32;103436.84;4946739;29;20138;-34
2024/01/11 00:45:52;;;;;;;15.65;10.52;;;;;;;14.31;43.08;103436.00;4942689;28;20052;-34
2024/01/11 00:48:18;;;;;;;17.80;11.40;;;;;;;14.31;43.06;103438.66;4942490;28;20078;-34
2024/01/11 00:50:45;;;;;;;18.13;10.95;;;;;;;14.32;43.48;103440.38;4940809;28;20070;-34
2024/01/11 00:53:14;;;;;;;16.23;10.93;;;;;;;14.36;43.21;103442.94;4946878;29;20424;-35
2024/01/11 00:55:41;;;;;;;16.98;10.75;;;;;;;14.38;42.81;103441.03;4946337;29;20070;-35
2024/01/11 00:58:07;;;;;;;16.20;10.65;;;;;;;14.38;42.91;103436.56;4945996;28;20463;-34
2024/01/11 01:00:34;;;;;;;16.38;11.07;;;;;;;14.37;43.37;103432.19;4947502;28;20055;-35
2024/01/11 01:03:01;;;;;;;17.17;10.55;;;;;;;14.35;43.37;103441.16;4946200;28;20079;-34
2024/01/11 01:05:27;;;;;;;16.58;10.88;;;;;;;14.29;42.46;103443.19;4946496;28;20051;-34
2024/01/11 01:07:54;;;;;;;15.40;10.13;;;;;;;14.25;42.89;103444.25;4952958;28;20106;-35
2024/01/11 01:10:21;;;;;;;16.42;10.20;;;;;;;14.19;43.46;103444.53;4951357;28;20498;-34
2024/01/11 01:12:48;;;;;;;15.38;9.82;;;;;;;14.16;43.29;103443.78;4954506;28;20055;-34
2024/01/11 01:15:14;;;;;;;14.60;9.70;;;;;;;14.15;43.74;103450.91;4951593;28;20585;-34
2024/01/11 01:17:41;;;;;;;14.82;9.57;;;;;;;14.20;43.21;103446.25;4949527;28;20509;-34
2024/01/11 01:20:09;;;;;;;15.35;9.73;;;;;;;14.30;43.54;103452.03;4952170;29;20062;-33
2024/01/11 01:22:36;;;;;;;14.10;9.07;;;;;;;14.41;42.78;103449.78;4950733;28;20055;-34
2024/01/11 01:25:03;;;;;;;12.90;9.07;;;;;;;14.55;43.37;103450.09;4953523;29;20063;-36
2024/01/11 01:27:30;;;;;;;14.45;9.40;;;;;;;14.69;42.82;103451.28;4950562;28;20339;-37
2024/01/11 01:29:57;;;;;;;14.55;9.95;;;;;;;14.80;42.02;103454.34;4949337;29;20066;-35
2024/01/11 01:32:23;;;;;;;15.32;9.65;;;;;;;14.89;42.14;103453.94;4947591;29;20478;-34
2024/01/11 01:34:50;;;;;;;14.23;9.35;;;;;;;14.97;42.00;103462.47;4952838;29;20047;-35
2024/01/11 01:37:17;;;;;;;13.43;8.85;;;;;;;15.01;42.04;103460.53;4951280;28;20059;-34
2024/01/11 01:39:43;;;;;;;14.20;9.40;;;;;;;15.00;42.15;103467.69;4952258;28;20059;-34
2024/01/11 01:42:10;;;;;;;13.23;9.23;;;;;;;14.96;41.56;103454.53;4948412;29;20055;-36
2024/01/11 01:44:36;;;;;;;13.52;8.73;;;;;;;14.92;41.79;103463.63;4951966;28;20350;-34
2024/01/11 01:47:04;;;;;;;13.70;9.23;;;;;;;14.88;41.88;103456.69;4953049;29;20097;-34
2024/01/11 01:49:31;;;;;;;12.18;8.48;;;;;;;14.89;41.91;103455.75;4949908;28;20377;-35
2024/01/11 01:51:58;;;;;;;11.93;8.02;;;;;;;14.90;41.99;103468.16;4952096;29;20043;-34
2024/01/11 01:54:25;;;;;;;10.95;7.07;;;;;;;14.89;42.26;103469.09;4948281;28;20506;-34
2024/01/11 01:56:53;;;;;;;13.25;8.52;;;;;;;14.82;41.63;103464.00;4950545;29;20065;-34
2024/01/11 01:59:21;;;;;;;10.88;7.88;;;;;;;14.74;42.22;103463.50;4952788;28;20051;-35
2024/01/11 02:01:48;;;;;;;13.10;8.77;;;;;;;14.64;41.86;103464.84;4949343;28;20055;-34
2024/01/11 02:04:15;;;;;;;11.07;7.47;;;;;;;14.56;42.71;103466.97;4950237;29;20047;-34
2024/01/11 02:06:47;;;;;;;11.95;8.23;;;;;;;14.47;42.90;103464.66;4953292;29;20548;-34
2024/01/11 02:09:14;;;;;;;11.60;8.02;;;;;;;14.38;42.21;103467.72;4951776;28;20051;-34
2024/01/11 02:11:41;;;;;;;11.73;8.13;;;;;;;14.27;42.95;103462.84;4949565;28;20079;-35
2024/01/11 02:14:10;;;;;;;13.38;8.60;;;;;;;14.18;42.39;103469.44;4949671;29;20134;-33
2024/01/11 02:16:37;;;;;;;12.07;8.15;;;;;;;14.10;43.24;103474.22;4947585;29;20070;-35
2024/01/11 02:19:07;;;;;;;11.63;7.95;;;;;;;13.99;43.65;103479.13;4948073;28;20106;-35
2024/01/11 02:21:34;;;;;;;10.98;8.00;;;;;;;13.90;43.15;103491.03;4948877;29;20078;-34
2024/01/11 02:24:03;;;;;;;10.98;8.00;;;;;;;13.79;43.38;103483.47;4948156;28;20074;-34
2024/01/11 02:26:30;;;;;;;13.77;8.30;;;;;;;13.70;43.63;103490.97;4947536;29;20090;-34
2024/01/11 02:28:57;;;;;;;10.93;7.80;;;;;;;13.65;43.85;103483.16;4944449;29;20047;-35
2024/01/11 02:31:24;;;;;;;11.95;8.15;;;;;;;13.70;44.14;103475.81;4944934;29;20087;-35
2024/01/11 02:33:52;;;;;;;10.43;7.32;;;;;;;13.77;43.25;103469.34;4945496;28;20055;-34
2024/01/11 02:36:21;;;;;;;9.85;6.88;;;;;;;13.90;43.59;103469.69;4949650;29;20118;-34
2024/01/11 02:38:50;;;;;;;11.98;7.97;;;;;;;14.06;43.07;103469.94;4947688;29;20102;-35
2024/01/11 02:41:18;;;;;;;9.80;6.80;;;;;;;14.21;42.98;103477.31;4945835;29;20110;-34
2024/01/11 02:43:48;;;;;;;10.88;7.78;;;;;;;14.37;43.06;103466.88;4946868;28;20152;-34
2024/01/11 02:46:17;;;;;;;10.57;7.50;;;;;;;14.51;42.77;103467.19;4944622;28;20131;-34
2024/01/11 02:48:44;;;;;;;10.15;7.13;;;;;;;14.65;42.00;103463.91;4945046;29;20139;-35
2024/01/11 02:51:11;;;;;;;9.98;6.70;;;;;;;14.76;41.96;103474.13;4949606;29;20633;-35
2024/01/11 02:53:38;;;;;;;9.82;6.85;;;;;;;14.85;41.62;103478.19;4945861;29;20360;-34
2024/01/11 02:56:04;;;;;;;10.23;6.82;;;;;;;14.89;42.12;103477.09;4946676;29;20056;-35
2024/01/11 02:58:31;;;;;;;10.85;7.22;;;;;;;14.86;41.84;103469.22;4947645;28;20052;-34
2024/01/11 03:00:58;;;;;;;11.32;6.72;;;;;;;14.83;42.15;103467.53;4940045;28;20058;-35
2024/01/11 03:03:24;;;;;;;10.18;6.63;;;;;;;14.80;42.47;103449.03;4946275;28;20420;-35
2024/01/11 03:05:51;;;;;;;9.40;6.38;;;;;;;14.78;41.77;103462.41;4946531;28;20478;-35
2024/01/11 03:08:18;;;;;;;11.93;7.20;;;;;;;14.80;42.01;103467.72;4947232;29;20040;-34
2024/01/11 03:10:44;;;;;;;8.75;6.55;;;;;;;14.81;41.75;103464.97;4947040;28;20066;-34
2024/01/11 03:13:12;;;;;;;10.80;6.68;;;;;;;14.79;42.13;103464.19;4948023;28;20051;-35
2024/01/11 03:15:39;;;;;;;9.93;6.80;;;;;;;14.75;41.86;103470.59;4946995;29;20304;-34
2024/01/11 03:18:06;;;;;;;9.68;6.35;;;;;;;14.66;41.58;103468.28;4949034;29;20051;-35
2024/01/11 03:20:32;;;;;;;10.38;6.65;;;;;;;14.59;42.09;103471.31;4949126;28;20051;-34
2024/01/11 03:22:59;;;;;;;9.68;6.80;;;;;;;14.51;42.66;103472.53;4946769;29;20083;-34
2024/01/11 03:25:26;;;;;;;9.65;6.93;;;;;;;14.42;42.47;103478.19;4944909;29;20086;-35
2024/01/11 03:27:52;;;;;;;9.77;6.35;;;;;;;14.36;42.21;103490.94;4947814;28;20046;-35
2024/01/11 03:30:19;;;;;;;10.55;6.60;;;;;;;14.27;42.13;103484.19;4949169;28;20087;-35
2024/01/11 03:32:46;;;;;;;7.97;6.25;;;;;;;14.18;42.88;103477.44;4943755;28;20054;-35
2024/01/11 03:35:13;;;;;;;9.20;6.82;;;;;;;14.11;42.60;103491.09;4949000;29;20236;-34
2024/01/11 03:37:39;;;;;;;11.25;7.57;;;;;;;14.02;42.91;103489.66;4946873;28;20090;-35
2024/01/11 03:40:06;;;;;;;8.35;6.35;;;;;;;13.95;42.87;103488.16;4948554;29;20098;-35
2024/01/11 03:42:33;;;;;;;8.23;5.93;;;;;;;13.83;43.41;103487.75;4948671;29;20347;-35
2024/01/11 03:45:00;;;;;;;8.68;5.97;;;;;;;13.81;43.47;103481.59;4946058;28;20106;-35
2024/01/11 03:47:26;;;;;;;9.68;5.97;;;;;;;13.86;43.09;103481.41;4945976;28;20109;-34
2024/01/11 03:49:53;;;;;;;9.38;5.90;;;;;;;13.93;43.56;103490.91;4947830;29;20106;-34
2024/01/11 03:52:20;;;;;;;9.20;6.00;;;;;;;14.05;43.42;103484.22;4947329;28;20095;-34
2024/01/11 03:54:46;;;;;;;8.88;6.22;;;;;;;14.19;42.85;103484.53;4948711;28;20082;-34
2024/01/11 03:57:14;;;;;;;6.78;5.13;;;;;;;14.38;42.66;103483.75;4946420;29;20162;-35
2024/01/11 03:59:41;;;;;;;8.77;6.30;;;;;;;14.52;42.40;103474.25;4945654;28;20098;-34
2024/01/11 04:02:07;;;;;;;10.25;6.05;;;;;;;14.64;42.59;103472.00;4945718;28;20065;-34
2024/01/11 04:04:34;;;;;;;9.20;6.18;;;;;;;14.76;42.57;103476.78;4945182;28;20068;-34
2024/01/11 04:07:01;;;;;;;8.85;6.25;;;;;;;14.85;41.93;103484.38;4945185;28;20055;-34
2024/01/11 04:09:27;;;;;;;8.88;6.32;;;;;;;14.91;41.45;103491.25;4943488;29;20423;-34
2024/01/11 04:11:54;;;;;;;8.57;5.80;;;;;;;14.91;41.73;103499.25;4943070;29;20051;-35
2024/01/11 04:14:21;;;;;;;7.80;5.57;;;;;;;14.87;41.83;103503.84;4945281;29;20058;-34
2024/01/11 04:16:47;;;;;;;7.53;5.63;;;;;;;14.85;41.84;103499.53;4945897;29;20157;-35
2024/01/11 04:19:14;;;;;;;8.45;5.93;;;;;;;14.80;41.49;103497.94;4944945;29;20098;-35
2024/01/11 04:21:42;;;;;;;7.22;5.30;;;;;;;14.77;41.54;103508.75;4944691;29;20054;-36
2024/01/11 04:24:08;;;;;;;7.50;5.28;;;;;;;14.77;42.10;103514.09;4945573;29;20062;-34
2024/01/11 04:26:35;;;;;;;8.38;6.05;;;;;;;14.77;41.59;103516.75;4945284;28;20073;-35
2024/01/11 04:29:02;;;;;;;8.57;5.88;;;;;;;14.74;41.99;103519.56;4946329;28;20048;-34
2024/01/11 04:31:29;;;;;;;9.38;5.88;;;;;;;14.67;41.48;103507.41;4945101;29;20051;-34
2024/01/11 04:33:56;;;;;;;9.20;6.22;;;;;;;14.59;41.96;103509.53;4943164;29;20054;-35
2024/01/11 04:36:22;;;;;;;8.40;5.88;;;;;;;14.52;41.54;103514.28;4943440;28;20055;-34
2024/01/11 04:38:49;;;;;;;7.22;5.65;;;;;;;14.43;42.35;103530.66;4942999;29;20424;-36
2024/01/11 04:41:16;;;;;;;8.15;5.63;;;;;;;14.37;42.40;103530.03;4947955;28;20055;-34
2024/01/11 04:43:44;;;;;;;6.80;5.00;;;;;;;14.27;42.42;103534.88;4945029;28;20055;-35
2024/01/11 04:46:18;;;;;;;7.78;5.50;;;;;;;14.18;42.36;103536.13;4945965;28;20335;-33
2024/01/11 04:48:45;;;;;;;8.73;6.13;;;;;;;14.12;42.70;103527.50;4942865;29;20086;-34
2024/01/11 04:51:13;;;;;;;7.72;5.47;;;;;;;14.04;42.78;103525.16;4943273;29;20438;-35
2024/01/11 04:53:40;;;;;;;8.02;5.57;;;;;;;13.93;43.10;103528.25;4949402;28;20431;-36
2024/01/11 04:56:08;;;;;;;8.60;6.65;;;;;;;13.91;43.16;103531.88;4946924;29;20049;-34
2024/01/11 04:58:37;;;;;;;7.13;5.22;;;;;;;13.93;43.30;103532.72;4944327;28;20335;-34
2024/01/11 05:01:05;;;;;;;7.43;5.40;;;;;;;14.02;43.40;103524.31;4944956;29;20055;-35
2024/01/11 05:03:32;;;;;;;7.18;5.53;;;;;;;14.16;42.57;103534.47;4947814;28;20082;-34
2024/01/11 05:05:59;;;;;;;8.18;5.75;;;;;;;14.32;43.04;103531.09;4940788;28;20360;-35
2024/01/11 05:08:26;;;;;;;8.07;5.63;;;;;;;14.47;42.56;103526.94;4945637;29;20062;-34
2024/01/11 05:10:53;;;;;;;8.50;6.10;;;;;;;14.60;41.97;103531.78;4944892;29;20051;-34
2024/01/11 05:13:20;;;;;;;8.35;6.20;;;;;;;14.70;41.75;103528.63;4949535;28;20055;-34
2024/01/11 05:15:47;;;;;;;7.43;5.20;;;;;;;14.79;41.70;103514.91;4949137;29;20105;-34
2024/01/11 05:18:14;;;;;;;8.20;5.22;;;;;;;14.86;41.47;103510.13;4946777;29;20067;-34
2024/01/11 05:20:41;;;;;;;6.68;4.82;;;;;;;14.93;41.39;103518.75;4946490;28;20082;-35
2024/01/11 05:23:08;;;;;;;8.07;5.47;;;;;;;14.91;41.50;103517.94;4949151;29;20597;-34
2024/01/11 05:25:35;;;;;;;6.88;5.28;;;;;;;14.86;41.73;103517.28;4948092;28;20090;-34
2024/01/11 05:28:03;;;;;;;7.30;5.18;;;;;;;14.82;41.82;103521.88;4947188;28;20317;-34
2024/01/11 05:30:30;;;;;;;7.30;5.65;;;;;;;14.81;41.39;103518.34;4946028;29;20059;-36
2024/01/11 05:32:57;;;;;;;7.38;5.88;;;;;;;14.80;42.04;103521.09;4947328;28;20055;-36
2024/01/11 05:35:27;;;;;;;8.52;6.20;;;;;;;14.78;41.69;103517.63;4944064;28;20059;-35
2024/01/11 05:37:57;;;;;;;8.98;6.60;;;;;;;14.76;41.87;103515.03;4941296;29;20355;-35
2024/01/11 05:40:23;;;;;;;9.80;6.75;;;;;;;14.75;42.06;103521.31;4948432;28;20106;-35
2024/01/11 05:42:50;;;;;;;10.35;7.00;;;;;;;14.74;41.90;103506.19;4948070;29;20091;-35
2024/01/11 05:45:17;;;;;;;9.20;6.75;;;;;;;14.74;41.40;103506.19;4946100;29;20058;-36
2024/01/11 05:47:49;;;;;;;12.15;7.68;;;;;;;14.74;41.55;103494.66;4948857;28;20134;-35
2024/01/11 05:50:16;;;;;;;10.65;7.22;;;;;;;14.72;41.21;103509.91;4949690;28;20062;-34
2024/01/11 05:52:43;;;;;;;9.02;6.75;;;;;;;14.64;42.08;103515.56;4950976;28;20130;-34
2024/01/11 05:55:10;;;;;;;9.57;6.72;;;;;;;14.55;42.04;103526.59;4950776;29;20094;-34
2024/01/11 05:57:37;;;;;;;10.38;7.60;;;;;;;14.51;41.74;103528.56;4952680;28;20113;-34
2024/01/11 06:00:05;;;;;;;10.38;7.60;;;;;;;14.53;42.19;103515.16;4949340;29;20047;-34
2024/01/11 06:02:31;;;;;;;11.18;7.65;;;;;;;14.60;41.53;103513.97;4949164;29;20126;-35
2024/01/11 06:04:58;;;;;;;10.90;8.15;;;;;;;14.72;41.65;103525.91;4948157;29;20055;-34
2024/01/11 06:07:25;;;;;;;12.35;8.00;;;;;;;14.81;42.11;103537.03;4945981;29;20052;-35
2024/01/11 06:09:51;;;;;;;11.52;8.55;;;;;;;14.89;41.25;103533.19;4946052;28;20048;-35
2024/01/11 06:12:18;;;;;;;13.43;8.70;;;;;;;14.96;40.94;103537.31;4953159;29;20515;-36
2024/01/11 06:14:44;;;;;;;11.07;7.72;;;;;;;15.01;40.99;103546.84;4950644;28;20401;-34
2024/01/11 06:17:11;;;;;;;11.95;8.02;;;;;;;15.06;41.08;103549.31;4949692;29;20535;-35
2024/01/11 06:19:38;;;;;;;11.27;8.02;;;;;;;15.03;40.94;103558.34;4949847;28;20047;-35
2024/01/11 06:22:05;;;;;;;13.00;9.05;;;;;;;14.98;41.71;103564.81;4949006;29;20051;-36
2024/01/11 06:24:32;;;;;;;12.10;8.20;;;;;;;14.93;41.25;103569.50;4950459;28;20201;-35
2024/01/11 06:26:58;;;;;;;13.95;9.27;;;;;;;14.88;41.09;103564.38;4943218;29;20138;-35
2024/01/11 06:29:25;;;;;;;14.52;9.00;;;;;;;14.86;41.40;103590.25;4946302;29;20108;-34
2024/01/11 06:31:51;;;;;;;14.18;9.68;;;;;;;14.83;41.24;103595.72;4949294;29;20053;-34
2024/01/11 06:34:18;;;;;;;13.13;8.77;;;;;;;14.80;41.47;103615.41;4947513;28;20091;-34
2024/01/11 06:36:45;;;;;;;12.70;8.82;;;;;;;14.76;41.65;103619.16;4949310;29;20110;-35
2024/01/11 06:39:12;;;;;;;12.48;8.93;;;;;;;14.73;41.67;103624.63;4945744;28;20110;-34
2024/01/11 06:41:39;;;;;;;12.65;9.05;;;;;;;14.66;41.89;103616.91;4948773;28;20078;-35
2024/01/11 06:44:06;;;;;;;13.77;9.15;;;;;;;14.61;41.43;103609.09;4945187;29;20054;-35
2024/01/11 06:46:32;;;;;;;13.27;9.32;;;;;;;14.54;41.91;103615.63;4947598;28;20059;-35
2024/01/11 06:48:59;;;;;;;14.13;9.65;;;;;;;14.45;41.47;103619.50;4949023;29;20048;-36
2024/01/11 06:51:26;;;;;;;12.90;8.98;;;;;;;14.36;42.04;103625.22;4948818;29;20142;-35
2024/01/11 06:53:52;;;;;;;12.82;8.63;;;;;;;14.29;41.78;103629.06;4942218;28;20126;-35
2024/01/11 06:56:20;;;;;;;13.23;9.50;;;;;;;14.20;42.32;103630.28;4945775;28;20055;-36
2024/01/11 06:58:48;;;;;;;13.25;9.27;;;;;;;14.14;42.30;103627.84;4948596;28;20130;-35
2024/01/11 07:01:14;;;;;;;12.82;9.05;;;;;;;14.06;42.58;103628.16;4948875;28;20090;-35
2024/01/11 07:03:41;;;;;;;12.23;8.32;;;;;;;14.00;42.76;103630.19;4945475;28;20094;-35
2024/01/11 07:06:09;;;;;;;12.32;8.35;;;;;;;13.92;42.78;103630.50;4949286;28;20563;-35
2024/01/11 07:08:36;;;;;;;12.50;8.90;;;;;;;13.85;42.90;103634.31;4948154;28;20153;-37
2024/01/11 07:11:02;;;;;;;12.93;9.40;;;;;;;13.77;42.91;103634.59;4942228;29;20131;-35
2024/01/11 07:13:31;;;;;;;11.82;8.55;;;;;;;13.70;43.16;103632.22;4937322;29;20063;-37
2024/01/11 07:15:58;;;;;;;14.13;9.57;;;;;;;13.63;43.33;103636.91;4940025;29;20146;-35
2024/01/11 07:18:25;;;;;;;13.13;8.85;;;;;;;13.56;43.37;103632.72;4943642;29;20470;-36
2024/01/11 07:20:53;;;;;;;15.98;10.27;;;;;;;13.48;43.58;103619.69;4948050;29;20055;-36
2024/01/11 07:23:20;;;;;;;13.73;10.23;;;;;;;13.41;43.36;103620.84;4942514;28;20066;-35
2024/01/11 07:25:47;;;;;;;14.00;9.38;;;;;;;13.31;43.33;103607.00;4947716;29;20059;-35
2024/01/11 07:28:14;;;;;;;14.23;10.10;;;;;;;13.27;43.62;103602.69;4947274;28;20055;-36
2024/01/11 07:30:40;;;;;;;13.38;9.63;;;;;;;13.22;43.97;103598.41;4947474;29;20134;-35
2024/01/11 07:33:07;;;;;;;13.07;10.13;;;;;;;13.16;44.04;103588.84;4947368;29;20134;-37
2024/01/11 07:35:36;;;;;;;13.30;9.57;;;;;;;13.11;43.79;103581.97;4948879;28;20055;-36
2024/01/11 07:38:03;;;;;;;16.75;11.30;;;;;;;13.04;43.89;103579.50;4942987;28;20063;-36
2024/01/11 07:40:30;;;;;;;15.82;10.85;;;;;;;13.00;44.20;103587.66;4947809;29;20066;-35
2024/01/11 07:43:01;;;;;;;15.73;10.38;;;;;;;12.97;44.41;103585.09;4941891;29;20185;-35
2024/01/11 07:45:28;;;;;;;14.48;10.07;;;;;;;12.93;44.05;103589.66;4943971;28;20153;-35
2024/01/11 07:47:54;;;;;;;13.55;9.77;;;;;;;12.90;44.22;103586.22;4946056;29;20079;-34
2024/01/11 07:50:21;;;;;;;14.02;9.93;;;;;;;12.85;44.81;103597.03;4944952;28;20070;-35
2024/01/11 07:52:48;;;;;;;13.88;10.07;;;;;;;12.83;44.39;103596.22;4946571;28;20043;-34
2024/01/11 07:55:14;;;;;;;15.55;10.18;;;;;;;12.79;44.78;103606.09;4947632;28;20141;-35
2024/01/11 07:57:41;;;;;;;15.50;10.85;;;;;;;12.77;44.17;103607.94;4945651;28;20450;-34
2024/01/11 08:00:08;;;;;;;13.07;9.35;;;;;;;12.75;44.56;103604.47;4947794;28;20148;-35
2024/01/11 08:02:35;;;;;;;12.27;9.00;;;;;;;12.76;44.43;103600.88;4946847;28;20079;-35
2024/01/11 08:05:02;;;;;;;13.77;9.90;;;;;;;12.75;45.08;103616.91;4943942;29;20475;-37
2024/01/11 08:07:30;;;;;;;13.95;9.88;;;;;;;12.75;44.92;103607.13;4942747;28;20419;-35
2024/01/11 08:09:56;;;;;;;13.63;9.55;;;;;;;12.75;45.12;103612.44;4946689;28;20043;-35
2024/01/11 08:12:23;;;;;;;13.77;9.60;;;;;;;12.77;44.71;103612.38;4945881;29;20094;-36
2024/01/11 08:14:50;;;;;;;14.23;10.02;;;;;;;12.78;44.63;103606.13;4944344;28;20115;-36
2024/01/11 08:17:16;;;;;;;13.55;9.82;;;;;;;12.79;45.23;103614.09;4944563;29;20055;-35
2024/01/11 08:19:43;;;;;;;13.05;9.43;;;;;;;12.80;44.77;103605.16;4944600;28;20349;-35
2024/01/11 08:22:10;;;;;;;12.02;8.63;;;;;;;12.81;45.24;103614.88;4941154;29;20114;-37
2024/01/11 08:24:38;;;;;;;12.63;9.25;;;;;;;12.83;44.39;103607.75;4940349;29;20070;-36
2024/01/11 08:27:05;;;;;;;12.98;8.85;;;;;;;12.86;44.42;103609.41;4946054;29;20058;-35
2024/01/11 08:29:33;;;;;;;12.15;8.55;;;;;;;12.87;44.91;103600.53;4940015;28;20051;-37
2024/01/11 08:32:03;;;;;;;12.38;9.15;;;;;;;12.90;44.91;103607.50;4943110;29;20052;-36
2024/01/11 08:34:49;;;;;;;14.13;9.65;;;;;;;12.94;44.63;103609.16;4944217;28;20051;-35
2024/01/11 08:37:16;;;;;;;11.60;8.70;;;;;;;12.97;45.09;103609.91;4940494;29;20145;-34
2024/01/11 08:39:43;;;;;;;12.05;8.55;;;;;;;13.01;44.53;103616.88;4942913;29;20454;-35
2024/01/11 08:42:09;;;;;;;12.85;8.70;;;;;;;13.06;44.89;103624.69;4943224;29;20107;-36
2024/01/11 08:44:36;;;;;;;11.93;8.35;;;;;;;13.14;44.66;103627.09;4941255;28;20054;-34
2024/01/11 08:47:03;;;;;;;10.55;7.97;;;;;;;13.21;45.24;103633.97;4941663;29;20051;-36
2024/01/11 08:49:30;;;;;;;11.27;8.73;;;;;;;13.28;45.21;103636.38;4943382;29;20471;-35
2024/01/11 08:51:57;;;;;;;11.07;8.00;;;;;;;13.37;45.08;103647.63;4943800;28;20055;-35
2024/01/11 08:54:23;;;;;;;12.25;8.75;;;;;;;13.46;44.81;103649.97;4943097;28;20082;-35
2024/01/11 08:56:50;;;;;;;10.77;8.18;;;;;;;13.54;45.13;103658.56;4941100;28;20051;-35
2024/01/11 08:59:17;;;;;;;11.45;8.25;;;;;;;13.60;45.06;103671.66;4942886;28;20305;-36
2024/01/11 09:01:43;;;;;;;11.80;8.52;;;;;;;13.68;45.43;103668.72;4941958;29;20077;-34
2024/01/11 09:04:29;;;;;;;11.25;8.05;;;;;;;13.76;45.44;103664.00;4944824;29;20130;-35
2024/01/11 09:06:56;;;;;;;11.75;8.13;;;;;;;13.82;45.84;103671.75;4940643;29;20185;-36
2024/01/11 09:09:23;;;;;;;12.57;8.88;;;;;;;13.88;45.72;103681.31;4937844;28;20075;-36
2024/01/11 09:11:49;;;;;;;11.32;8.20;;;;;;;13.92;45.46;103677.63;4938835;29;20435;-35
2024/01/11 09:14:16;;;;;;;11.52;8.05;;;;;;;13.95;45.29;103685.47;4943917;28;20516;-36
2024/01/11 09:16:44;;;;;;;11.27;8.30;;;;;;;13.98;45.97;103686.25;4946623;28;20051;-35
2024/01/11 09:19:11;;;;;;;12.32;8.77;;;;;;;14.02;45.58;103689.66;4942774;29;20047;-35
2024/01/11 09:21:38;;;;;;;11.27;8.18;;;;;;;14.04;44.97;103682.50;4944105;28;20130;-36
2024/01/11 09:24:05;;;;;;;12.75;8.77;;;;;;;14.07;45.02;103688.59;4944921;28;20047;-35
2024/01/11 09:26:31;;;;;;;10.35;7.95;;;;;;;14.12;45.11;103684.88;4947046;28;20063;-36
2024/01/11 09:28:58;;;;;;;10.23;7.40;;;;;;;14.14;44.70;103685.66;4944377;29;20832;-35
2024/01/11 09:31:24;;;;;;;11.15;7.63;;;;;;;14.16;44.75;103690.03;4941029;28;20051;-35
2024/01/11 09:33:52;;;;;;;10.38;7.53;;;;;;;14.15;44.59;103684.72;4951221;28;20514;-37
2024/01/11 09:36:19;;;;;;;9.52;7.20;;;;;;;14.13;44.33;103689.28;4949554;29;20138;-35
2024/01/11 09:38:46;;;;;;;12.43;8.00;;;;;;;14.09;44.42;103685.84;4946021;29;20071;-36
2024/01/11 09:41:13;;;;;;;11.68;8.27;;;;;;;14.04;44.48;103695.81;4945307;28;20047;-37
2024/01/11 09:43:42;;;;;;;10.23;7.50;;;;;;;13.99;43.97;103697.78;4947436;29;20062;-36
2024/01/11 09:46:11;;;;;;;10.60;7.20;;;;;;;13.95;44.56;103706.81;4942358;29;20048;-37
2024/01/11 09:48:40;;;;;;;9.98;7.25;;;;;;;13.90;44.27;103709.66;4947559;28;20431;-35
2024/01/11 09:51:10;;;;;;;13.35;8.40;;;;;;;13.85;44.25;103708.97;4943811;29;20071;-35
2024/01/11 09:53:38;;;;;;;11.05;8.00;;;;;;;13.82;44.38;103707.25;4948317;28;20075;-36
2024/01/11 09:56:08;;;;;;;11.27;8.10;;;;;;;13.78;44.51;103705.63;4947966;28;20055;-37
2024/01/11 09:58:39;;;;;;;11.73;7.70;;;;;;;13.74;44.63;103698.66;4946306;28;20055;-35
2024/01/11 10:01:10;;;;;;;9.80;7.30;;;;;;;13.72;44.98;103703.22;4944603;28;20079;-35
2024/01/11 10:03:39;;;;;;;10.07;7.13;;;;;;;13.68;44.73;103706.91;4943801;29;20047;-35
2024/01/11 10:06:07;;;;;;;10.63;7.70;;;;;;;13.66;45.00;103707.88;4945396;28;20142;-36
2024/01/11 10:08:34;;;;;;;13.30;7.25;;;;;;;13.64;45.06;103699.94;4949568;29;20081;-35
2024/01/11 10:11:00;;;;;;;10.27;7.40;;;;;;;13.62;44.77;103691.13;4944347;29;20048;-35
2024/01/11 10:13:31;;;;;;;11.48;7.47;;;;;;;13.61;45.03;103694.72;4947989;28;20054;-36
2024/01/11 10:16:08;;;;;;;11.02;7.22;;;;;;;13.59;44.95;103701.91;4950072;28;20102;-35
2024/01/11 10:18:34;;;;;;;8.90;6.97;;;;;;;13.58;45.09;103703.69;4948815;29;20063;-36
2024/01/11 10:21:01;;;;;;;9.73;7.38;;;;;;;13.58;45.19;103710.81;4948275;28;20437;-38
2024/01/11 10:23:31;;;;;;;10.20;6.80;;;;;;;13.57;45.12;103704.63;4945185;29;20055;-36
2024/01/11 10:25:58;;;;;;;10.65;6.72;;;;;;;13.55;45.06;103706.47;4948897;29;20063;-36
2024/01/11 10:28:26;;;;;;;11.20;6.75;;;;;;;13.56;45.04;103699.34;4944563;28;20055;-36
2024/01/11 10:30:53;;;;;;;10.20;7.30;;;;;;;13.57;45.41;103699.28;4947894;29;20113;-35
2024/01/11 10:33:21;;;;;;;8.95;6.55;;;;;;;13.55;45.04;103700.28;4944653;29;20059;-34
2024/01/11 10:35:51;;;;;;;10.13;6.85;;;;;;;13.55;45.34;103695.81;4943253;28;20135;-34
2024/01/11 10:38:18;;;;;;;9.50;6.68;;;;;;;13.56;45.43;103694.03;4946180;28;20052;-34
2024/01/11 10:40:45;;;;;;;10.10;6.75;;;;;;;13.56;45.10;103696.69;4944440;29;20461;-35
2024/01/11 10:43:19;;;;;;;9.20;6.65;;;;;;;13.55;45.13;103710.94;4946637;28;20450;-34
2024/01/11 10:45:48;;;;;;;;;;;;;;;13.53;45.65;103712.78;4944716;29;20126;-34
2024/01/11 10:48:15;;;;;;;8.77;6.43;;;;;;;13.58;45.15;103714.34;4942507;28;19990;-34
2024/01/11 10:50:44;;;;;;;9.40;6.50;;;;;;;13.58;45.63;103716.13;4943889;29;20078;-35
2024/01/11 10:53:21;;;;;;;9.50;6.32;;;;;;;13.55;45.39;103716.28;4944715;29;20051;-35
2024/01/11 10:55:50;;;;;;;7.82;5.97;;;;;;;13.57;45.75;103717.06;4945150;28;20431;-36
2024/01/11 10:58:19;;;;;;;10.68;7.03;;;;;;;13.56;45.47;103713.53;4944590;28;20388;-35
2024/01/11 11:00:48;;;;;;;10.35;6.93;;;;;;;13.56;45.52;103721.53;4947632;29;20130;-34
2024/01/11 11:03:16;;;;;;;9.57;5.93;;;;;;;13.56;45.58;103729.53;4945854;28;20071;-34
2024/01/11 11:05:44;;;;;;;9.82;6.53;;;;;;;13.56;45.79;103729.53;4942526;29;20444;-35
2024/01/11 11:08:12;;;;;;;10.02;6.70;;;;;;;13.56;45.55;103736.66;4947959;28;20347;-36
2024/01/11 11:10:40;;;;;;;8.88;6.25;;;;;;;13.55;45.57;103730.47;4945757;29;20048;-35
2024/01/11 11:13:09;;;;;;;9.95;6.15;;;;;;;13.55;45.68;103727.81;4944655;28;20062;-34
2024/01/11 11:15:38;;;;;;;7.43;5.40;;;;;;;13.56;45.71;103744.66;4943272;29;20400;-35
2024/01/11 11:18:05;;;;;;;7.82;6.05;;;;;;;13.55;45.65;103746.44;4944149;28;20059;-35
2024/01/11 11:20:32;;;;;;;10.68;6.20;;;;;;;13.55;45.61;103743.78;4940723;28;20057;-34